.
WxDataArchive / Data Records for 2011-12-07
2011-12-06 December 2011 2011-12-08

Data Records for Wednesday, 07 December 2011

Time	Temp	Chill	HIndex	Humid	Dewpt	 Wind 	HiWind	WindDir	Rain 	Barom 
-----	----	-----	------	-----	-----	------	------	-------	-----	----- 
00:00	30.1	30.1	30.1	87	26.7	0	2	0	0.00	30.134 
00:05	30.1	30.1	30.1	87	26.7	0	0	---	0.00	30.134 
00:10	30.1	30.1	30.1	87	26.7	0	1	0	0.00	30.134 
00:15	30.1	30.1	30.1	86	26.4	0	1	338	0.00	30.127 
00:20	30.1	30.1	30.1	86	26.4	0	1	338	0.00	30.127 
00:25	30.1	30.1	30.1	86	26.4	0	0	---	0.00	30.127 
00:30	30.1	30.1	30.1	86	26.4	0	0	---	0.00	30.120 
00:35	30.1	30.1	30.1	86	26.4	0	1	0	0.00	30.120 
00:40	30.0	30.0	30.0	85	26.0	0	1	0	0.00	30.120 
00:45	30.0	30.0	30.0	85	26.0	0	1	0	0.00	30.117 
00:50	30.0	30.0	30.0	85	26.0	0	1	0	0.00	30.117 
00:55	30.0	30.0	30.0	84	25.8	0	1	0	0.00	30.117 
01:00	30.0	30.0	30.0	84	25.8	0	1	0	0.00	30.113 
01:05	30.0	30.0	30.0	84	25.8	0	1	0	0.00	30.113 
01:10	29.8	29.8	29.8	84	25.6	0	0	---	0.00	30.113 
01:15	29.8	29.8	29.8	83	25.3	0	1	0	0.00	30.113 
01:20	29.8	29.8	29.8	83	25.3	0	2	0	0.00	30.113 
01:25	29.8	29.8	29.8	83	25.3	0	2	338	0.00	30.113 
01:30	29.8	29.8	29.8	82	25.0	0	2	338	0.00	30.106 
01:35	29.7	29.7	29.7	82	24.9	0	2	338	0.00	30.106 
01:40	29.7	29.7	29.7	82	24.9	0	1	338	0.00	30.106 
01:45	29.7	29.7	29.7	82	24.9	0	1	0	0.00	30.104 
01:50	29.7	29.7	29.7	82	24.9	0	1	338	0.00	30.104 
01:55	29.7	29.7	29.7	82	24.9	0	1	338	0.00	30.104 
02:00	29.7	29.7	29.7	82	24.9	0	2	338	0.00	30.098 
02:05	29.7	29.7	29.7	82	24.9	0	1	338	0.00	30.098 
02:10	29.7	29.7	29.7	83	25.2	0	2	338	0.00	30.098 
02:15	29.5	29.5	29.5	83	25.0	0	2	338	0.00	30.100 
02:20	29.5	29.5	29.5	83	25.0	0	3	338	0.00	30.100 
02:25	29.5	29.5	29.5	83	25.0	0	1	270	0.00	30.100 
02:30	29.4	29.4	29.4	83	24.9	0	1	270	0.00	30.103 
02:35	29.4	29.4	29.4	83	24.9	0	1	270	0.00	30.103 
02:40	29.4	29.4	29.4	83	24.9	0	2	270	0.00	30.103 
02:45	29.3	29.3	29.3	82	24.5	0	1	270	0.00	30.102 
02:50	29.1	29.1	29.1	82	24.3	0	1	270	0.00	30.102 
02:55	29.1	29.1	29.1	82	24.3	0	3	270	0.00	30.102 
03:00	29.1	29.1	29.1	82	24.3	0	3	270	0.00	30.100 
03:05	29.0	29.0	29.0	82	24.2	0	2	270	0.00	30.100 
03:10	29.0	29.0	29.0	82	24.2	0	2	270	0.00	30.100 
03:15	28.8	28.8	28.8	82	24.0	0	0	---	0.00	30.090 
03:20	28.7	28.7	28.7	82	23.9	0	1	270	0.00	30.090 
03:25	28.5	28.5	28.5	82	23.7	0	2	270	0.00	30.090 
03:30	28.2	28.2	28.2	82	23.4	0	1	270	0.00	30.091 
03:35	28.1	28.1	28.1	83	23.6	0	1	270	0.00	30.091 
03:40	27.9	27.9	27.9	83	23.4	0	1	270	0.00	30.091 
03:45	27.8	27.8	27.8	83	23.3	0	2	270	0.00	30.089 
03:50	27.6	27.6	27.6	83	23.1	0	2	270	0.00	30.089 
03:55	27.5	27.5	27.5	84	23.3	0	2	270	0.00	30.089 
04:00	27.5	27.5	27.5	84	23.3	0	2	270	0.00	30.080 
04:05	27.3	27.3	27.3	84	23.1	1	3	270	0.00	30.080 
04:10	27.2	27.2	27.2	84	23.0	0	2	0	0.00	30.080 
04:15	27.0	27.0	27.0	84	22.8	0	1	0	0.00	30.077 
04:20	26.9	26.9	26.9	85	23.0	1	2	0	0.00	30.077 
04:25	26.7	26.7	26.7	85	22.8	0	1	0	0.00	30.077 
04:30	26.7	26.7	26.7	85	22.8	0	1	0	0.00	30.075 
04:35	26.6	26.6	26.6	85	22.7	0	2	0	0.00	30.075 
04:40	26.4	26.4	26.4	85	22.5	0	1	0	0.00	30.075 
04:45	26.4	26.4	26.4	85	22.5	0	0	---	0.00	30.076 
04:50	26.3	26.3	26.3	86	22.7	0	0	---	0.00	30.076 
04:55	26.1	26.1	26.1	86	22.5	0	0	---	0.00	30.076 
05:00	26.0	26.0	26.0	86	22.4	0	0	---	0.00	30.075 
05:05	25.8	25.8	25.8	86	22.2	0	0	---	0.00	30.075 
05:10	25.8	25.8	25.8	86	22.2	0	0	---	0.00	30.075 
05:15	25.7	25.7	25.7	86	22.1	0	0	---	0.00	30.075 
05:20	25.6	25.6	25.6	86	22.0	0	0	---	0.00	30.075 
05:25	25.3	25.3	25.3	86	21.7	0	0	---	0.00	30.075 
05:30	25.1	25.1	25.1	86	21.5	0	0	---	0.00	30.078 
05:35	25.0	25.0	25.0	86	21.4	0	0	---	0.00	30.078 
05:40	24.8	24.8	24.8	87	21.5	0	0	---	0.00	30.078 
05:45	24.7	24.7	24.7	87	21.4	0	0	---	0.00	30.079 
05:50	24.5	24.5	24.5	87	21.2	0	0	---	0.00	30.079 
05:55	24.4	24.4	24.4	88	21.4	0	0	---	0.00	30.079 
06:00	24.4	24.4	24.4	88	21.4	0	0	---	0.00	30.082 
06:05	24.2	24.2	24.2	88	21.2	0	2	0	0.00	30.082 
06:10	24.2	24.2	24.2	88	21.2	0	0	---	0.00	30.082 
06:15	24.4	24.4	24.4	89	21.6	0	0	---	0.00	30.082 
06:20	24.7	24.7	24.7	89	21.9	0	0	---	0.00	30.082 
06:25	25.0	25.0	25.0	89	22.2	0	0	---	0.00	30.082 
06:30	25.3	25.3	25.3	89	22.5	0	0	---	0.00	30.078 
06:35	25.4	25.4	25.4	90	22.9	0	1	0	0.00	30.078 
06:40	25.7	25.7	25.7	90	23.2	0	1	0	0.00	30.078 
06:45	25.8	25.8	25.8	90	23.3	0	0	---	0.00	30.074 
06:50	26.0	26.0	26.0	90	23.5	0	1	0	0.00	30.074 
06:55	26.0	26.0	26.0	90	23.5	0	0	---	0.00	30.074 
07:00	26.1	26.1	26.1	89	23.3	0	0	---	0.00	30.068 
07:05	26.1	26.1	26.1	89	23.3	0	0	---	0.00	30.068 
07:10	26.1	26.1	26.1	89	23.3	0	0	---	0.00	30.068 
07:15	26.1	26.1	26.1	89	23.3	0	0	---	0.00	30.067 
07:20	26.1	26.1	26.1	89	23.3	0	0	---	0.00	30.067 
07:25	26.1	26.1	26.1	89	23.3	0	0	---	0.00	30.067 
07:30	26.3	26.3	26.3	89	23.5	0	0	---	0.00	30.068 
07:35	26.4	26.4	26.4	89	23.6	0	0	---	0.00	30.068 
07:40	26.4	26.4	26.4	89	23.6	0	0	---	0.00	30.068 
07:45	26.4	26.4	26.4	89	23.6	0	0	---	0.00	30.072 
07:50	26.6	26.6	26.6	89	23.8	0	0	---	0.00	30.072 
07:55	26.6	26.6	26.6	89	23.8	0	0	---	0.00	30.072 
08:00	26.7	26.7	26.7	89	23.9	0	0	---	0.00	30.075 
08:05	26.9	26.9	26.9	89	24.1	0	1	0	0.00	30.075 
08:10	27.0	27.0	27.0	89	24.2	0	0	---	0.00	30.075 
08:15	27.0	27.0	27.0	89	24.2	0	0	---	0.00	30.074 
08:20	27.2	27.2	27.2	89	24.4	0	0	---	0.00	30.074 
08:25	27.2	27.2	27.2	89	24.4	0	0	---	0.00	30.074 
08:30	27.3	27.3	27.3	88	24.2	0	0	---	0.00	30.069 
08:35	27.3	27.3	27.3	88	24.2	0	0	---	0.00	30.069 
08:40	27.5	27.5	27.5	88	24.4	0	0	---	0.00	30.069 
08:45	27.5	27.5	27.5	89	24.7	0	1	0	0.00	30.066 
08:50	27.6	27.6	27.6	89	24.8	0	1	0	0.00	30.066 
08:55	27.8	27.8	27.8	89	25.0	0	0	---	0.00	30.066 
09:00	27.9	27.9	27.9	89	25.1	0	0	---	0.00	30.067 
09:05	28.1	28.1	28.1	88	25.0	0	0	---	0.00	30.067 
09:10	28.1	28.1	28.1	88	25.0	0	0	---	0.00	30.067 
09:15	28.2	28.2	28.2	88	25.1	0	0	---	0.00	30.061 
09:20	28.4	28.4	28.4	88	25.3	0	0	---	0.00	30.061 
09:25	28.5	28.5	28.5	88	25.4	0	0	---	0.00	30.061 
09:30	28.7	28.7	28.7	88	25.6	0	0	---	0.00	30.059 
09:35	28.8	28.8	28.8	88	25.7	0	1	338	0.00	30.059 
09:40	29.0	29.0	29.0	87	25.6	0	0	---	0.00	30.059 
09:45	29.1	29.1	29.1	87	25.7	0	0	---	0.00	30.059 
09:50	29.1	29.1	29.1	87	25.7	0	1	338	0.00	30.059 
09:55	29.3	29.3	29.3	86	25.6	0	1	292	0.00	30.059 
10:00	29.4	29.4	29.4	86	25.7	0	0	---	0.00	30.061 
10:05	29.5	29.5	29.5	85	25.6	0	1	90	0.00	30.061 
10:10	29.5	29.5	29.5	85	25.6	0	1	90	0.00	30.061 
10:15	29.7	29.7	29.7	85	25.8	0	1	90	0.00	30.061 
10:20	29.7	29.7	29.7	84	25.5	0	0	---	0.00	30.061 
10:25	29.8	29.8	29.8	84	25.6	0	2	90	0.00	30.061 
10:30	29.8	29.8	29.8	84	25.6	0	2	90	0.00	30.063 
10:35	30.0	30.0	30.0	83	25.5	0	2	90	0.00	30.063 
10:40	30.0	30.0	30.0	83	25.5	0	1	90	0.00	30.063 
10:45	30.1	30.1	30.1	83	25.6	0	1	90	0.00	30.061 
10:50	30.3	30.3	30.3	82	25.5	0	2	90	0.00	30.061 
10:55	30.3	30.3	30.3	82	25.5	0	2	90	0.00	30.061 
11:00	30.4	30.4	30.4	82	25.6	0	1	90	0.00	30.059 
11:05	30.6	30.6	30.6	82	25.8	0	1	90	0.00	30.059 
11:10	30.7	30.7	30.7	81	25.6	0	1	90	0.00	30.059 
11:15	31.0	31.0	31.0	81	25.9	0	2	90	0.00	30.051 
11:20	31.0	31.0	31.0	81	25.9	0	2	90	0.00	30.051 
11:25	31.2	31.2	31.2	81	26.1	0	1	90	0.00	30.051 
11:30	31.3	31.3	31.3	81	26.2	0	3	90	0.00	30.047 
11:35	31.5	31.5	31.5	81	26.4	0	2	112	0.00	30.047 
11:40	31.8	31.8	31.8	81	26.6	0	2	112	0.00	30.047 
11:45	31.9	31.9	31.9	81	26.7	1	3	112	0.00	30.039 
11:50	32.1	32.1	32.1	81	26.9	0	2	248	0.00	30.039 
11:55	32.2	32.2	32.2	81	27.0	0	2	248	0.00	30.039 
12:00	32.4	32.4	32.4	80	26.9	1	4	248	0.00	30.031 
12:05	32.5	32.5	32.5	79	26.7	1	4	248	0.00	30.031 
12:10	32.7	32.7	32.7	79	26.9	1	4	248	0.00	30.031 
12:15	33.1	33.1	33.1	79	27.3	1	3	248	0.00	30.025 
12:20	33.5	33.5	33.5	78	27.4	1	3	248	0.00	30.025 
12:25	34.0	34.0	34.0	76	27.2	1	2	248	0.00	30.025 
12:30	34.4	34.4	34.4	75	27.3	1	4	248	0.00	30.016 
12:35	34.7	34.7	34.7	71	26.3	1	3	248	0.00	30.016 
12:40	34.9	34.9	34.9	68	25.4	2	3	292	0.00	30.016 
12:45	34.9	34.9	34.9	66	24.7	2	4	292	0.00	30.008 
12:50	35.0	35.0	35.0	65	24.4	3	6	270	0.00	30.008 
12:55	35.2	35.2	35.2	67	25.4	2	3	292	0.00	30.008 
13:00	35.2	35.2	35.2	67	25.4	2	4	248	0.01	30.003 
13:05	35.2	35.2	35.2	69	26.1	1	3	315	0.00	30.003 
13:10	35.0	35.0	35.0	69	25.9	2	4	270	0.00	30.003 
13:15	34.9	34.9	34.9	69	25.8	2	4	248	0.00	29.997 
13:20	34.4	34.4	34.4	70	25.6	2	5	270	0.00	29.997 
13:25	34.3	34.3	34.3	72	26.2	3	6	248	0.00	29.997 
13:30	34.3	34.3	34.3	73	26.6	1	4	270	0.00	29.993 
13:35	34.1	34.1	34.1	71	25.7	2	5	270	0.00	29.993 
13:40	34.1	34.1	34.1	71	25.7	2	5	225	0.00	29.993 
13:45	34.0	34.0	34.0	72	25.9	2	4	270	0.00	29.990 
13:50	33.8	33.8	33.8	72	25.7	2	3	292	0.00	29.990 
13:55	33.8	33.8	33.8	73	26.1	1	4	315	0.00	29.990 
14:00	34.3	34.3	34.3	74	26.9	1	3	315	0.00	29.987 
14:05	34.6	34.6	34.6	71	26.2	3	6	315	0.00	29.987 
14:10	34.4	34.4	34.4	69	25.3	2	6	315	0.00	29.987 
14:15	34.9	34.9	34.9	70	26.1	3	6	270	0.00	29.984 
14:20	34.9	34.9	34.9	69	25.8	2	5	270	0.00	29.984 
14:25	34.3	34.3	34.3	68	24.9	2	3	292	0.00	29.984 
14:30	34.3	34.3	34.3	68	24.9	2	4	292	0.00	29.978 
14:35	34.9	34.9	34.9	66	24.7	2	4	270	0.00	29.978 
14:40	35.3	35.3	35.3	65	24.7	1	3	270	0.00	29.978 
14:45	35.5	35.5	35.5	64	24.5	2	6	270	0.00	29.977 
14:50	35.2	35.2	35.2	65	24.6	2	6	270	0.00	29.977 
14:55	34.9	34.9	34.9	67	25.1	2	5	270	0.00	29.977 
15:00	34.4	34.4	34.4	67	24.6	2	4	248	0.00	29.979 
15:05	34.1	34.1	34.1	67	24.3	2	4	248	0.00	29.979 
15:10	34.3	34.3	34.3	66	24.1	2	4	292	0.00	29.979 
15:15	34.6	34.6	34.6	64	23.7	2	5	270	0.00	29.983 
15:20	34.7	34.7	34.7	62	23.0	2	5	270	0.00	29.983 
15:25	34.9	34.9	34.9	61	22.8	2	5	248	0.00	29.983 
15:30	34.9	34.9	34.9	60	22.4	2	5	248	0.00	29.978 
15:35	34.9	34.9	34.9	59	22.0	2	4	315	0.00	29.978 
15:40	34.7	34.7	34.7	59	21.9	2	6	270	0.00	29.978 
15:45	34.7	34.7	34.7	58	21.5	2	4	292	0.00	29.982 
15:50	34.7	34.7	34.7	58	21.5	2	4	270	0.00	29.982 
15:55	34.4	34.4	34.4	58	21.2	2	5	270	0.00	29.982 
16:00	34.4	34.4	34.4	59	21.6	2	5	270	0.00	29.991 
16:05	34.1	34.1	34.1	60	21.7	3	5	270	0.00	29.991 
16:10	33.8	33.8	33.8	62	22.2	2	5	248	0.00	29.991 
16:15	33.8	33.8	33.8	62	22.2	2	4	225	0.00	29.997 
16:20	33.7	33.7	33.7	61	21.7	2	5	270	0.00	29.997 
16:25	33.7	33.7	33.7	61	21.7	1	4	248	0.00	29.997 
16:30	33.7	33.7	33.7	62	22.1	1	3	248	0.00	30.002 
16:35	33.7	33.7	33.7	62	22.1	1	2	248	0.00	30.002 
16:40	33.7	33.7	33.7	62	22.1	1	3	248	0.00	30.002 
16:45	33.7	33.7	33.7	61	21.7	2	4	248	0.00	30.005 
16:50	33.8	33.8	33.8	60	21.4	2	6	248	0.00	30.005 
16:55	33.8	33.8	33.8	61	21.8	1	4	248	0.00	30.005 
17:00	33.8	33.8	33.8	61	21.8	0	3	248	0.00	30.002 
17:05	33.7	33.7	33.7	61	21.7	1	3	248	0.00	30.002 
17:10	33.5	33.5	33.5	62	21.9	1	4	248	0.00	30.002 
17:15	33.4	33.4	33.4	62	21.8	1	4	248	0.00	30.004 
17:20	33.2	33.2	33.2	63	22.0	1	3	248	0.00	30.004 
17:25	33.1	33.1	33.1	64	22.3	1	4	248	0.00	30.004 
17:30	32.9	32.9	32.9	64	22.1	1	5	248	0.00	30.001 
17:35	32.9	32.9	32.9	64	22.1	2	4	248	0.00	30.001 
17:40	32.9	32.9	32.9	65	22.4	1	4	248	0.00	30.001 
17:45	32.9	32.9	32.9	65	22.4	1	4	248	0.00	30.008 
17:50	32.8	32.8	32.8	65	22.3	1	4	248	0.00	30.008 
17:55	32.8	32.8	32.8	66	22.7	1	5	248	0.00	30.008 
18:00	32.7	32.7	32.7	67	23.0	1	4	270	0.00	30.013 
18:05	32.5	32.5	32.5	68	23.1	1	3	248	0.00	30.013 
18:10	32.4	32.4	32.4	68	23.0	1	6	248	0.00	30.013 
18:15	32.4	32.4	32.4	69	23.4	1	3	248	0.00	30.013 
18:20	32.1	32.1	32.1	69	23.1	1	4	248	0.00	30.013 
18:25	32.1	32.1	32.1	69	23.1	1	3	248	0.00	30.013 
18:30	31.9	31.9	31.9	69	22.9	1	5	248	0.00	30.015 
18:35	31.8	31.8	31.8	69	22.8	1	5	248	0.00	30.015 
18:40	31.8	31.8	31.8	70	23.2	1	5	248	0.00	30.015 
18:45	31.6	31.6	31.6	70	23.0	1	4	248	0.00	30.024 
18:50	31.5	31.5	31.5	70	22.9	2	4	248	0.00	30.024 
18:55	31.5	31.5	31.5	70	22.9	1	7	248	0.00	30.024 
19:00	31.3	31.3	31.3	69	22.3	1	4	248	0.00	30.031 
19:05	31.3	31.3	31.3	69	22.3	1	4	248	0.00	30.031 
19:10	31.3	31.3	31.3	68	22.0	2	4	270	0.00	30.031 
19:15	31.3	31.3	31.3	67	21.6	2	4	248	0.00	30.031 
19:20	31.2	31.2	31.2	67	21.5	2	5	248	0.00	30.031 
19:25	31.2	31.2	31.2	67	21.5	1	3	225	0.00	30.031 
19:30	31.2	31.2	31.2	67	21.5	2	4	248	0.00	30.038 
19:35	31.2	31.2	31.2	67	21.5	1	3	270	0.00	30.038 
19:40	31.0	31.0	31.0	66	21.0	2	5	248	0.00	30.038 
19:45	31.0	31.0	31.0	65	20.6	1	3	248	0.00	30.041 
19:50	30.9	30.9	30.9	65	20.5	2	5	248	0.00	30.041 
19:55	30.9	30.9	30.9	64	20.2	2	5	248	0.00	30.041 
20:00	30.9	30.9	30.9	63	19.8	2	5	248	0.00	30.042 
20:05	30.9	30.9	30.9	63	19.8	2	3	248	0.00	30.042 
20:10	30.7	30.7	30.7	63	19.6	1	3	248	0.00	30.042 
20:15	30.6	30.6	30.6	63	19.5	2	5	248	0.00	30.044 
20:20	30.6	30.6	30.6	63	19.5	1	4	248	0.00	30.044 
20:25	30.4	30.4	30.4	63	19.3	1	3	270	0.00	30.044 
20:30	30.4	30.4	30.4	63	19.3	2	7	248	0.00	30.045 
20:35	30.4	30.4	30.4	63	19.3	1	3	248	0.00	30.045 
20:40	30.3	30.3	30.3	63	19.2	2	3	248	0.00	30.045 
20:45	30.3	30.3	30.3	63	19.2	2	4	248	0.00	30.045 
20:50	30.1	30.1	30.1	64	19.4	1	4	225	0.00	30.045 
20:55	30.1	30.1	30.1	64	19.4	2	7	225	0.00	30.045 
21:00	30.0	30.0	30.0	64	19.3	1	3	248	0.00	30.046 
21:05	30.0	30.0	30.0	64	19.3	1	3	248	0.00	30.046 
21:10	30.0	30.0	30.0	64	19.3	2	4	248	0.00	30.046 
21:15	30.0	30.0	30.0	63	19.0	2	4	270	0.00	30.051 
21:20	29.8	29.8	29.8	63	18.8	2	4	270	0.00	30.051 
21:25	29.8	29.8	29.8	63	18.8	2	4	248	0.00	30.051 
21:30	29.7	29.7	29.7	63	18.7	1	3	248	0.00	30.060 
21:35	29.7	29.7	29.7	63	18.7	2	4	270	0.00	30.060 
21:40	29.7	29.7	29.7	62	18.3	2	4	270	0.00	30.060 
21:45	29.7	29.7	29.7	62	18.3	2	4	270	0.00	30.061 
21:50	29.7	29.7	29.7	62	18.3	2	3	270	0.00	30.061 
21:55	29.7	29.7	29.7	62	18.3	2	3	248	0.00	30.061 
22:00	29.5	29.5	29.5	63	18.5	2	4	248	0.00	30.062 
22:05	29.5	29.5	29.5	63	18.5	2	5	248	0.00	30.062 
22:10	29.5	29.5	29.5	63	18.5	2	5	248	0.00	30.062 
22:15	29.5	29.5	29.5	63	18.5	2	5	270	0.00	30.062 
22:20	29.5	29.5	29.5	63	18.5	2	6	292	0.00	30.062 
22:25	29.4	29.4	29.4	63	18.4	2	6	270	0.00	30.062 
22:30	29.4	29.4	29.4	63	18.4	2	4	248	0.00	30.063 
22:35	29.4	29.4	29.4	63	18.4	1	5	270	0.00	30.063 
22:40	29.3	29.3	29.3	64	18.7	1	4	248	0.00	30.063 
22:45	29.3	29.3	29.3	64	18.7	2	4	248	0.00	30.066 
22:50	29.3	29.3	29.3	64	18.7	2	5	248	0.00	30.066 
22:55	29.1	29.1	29.1	65	18.8	1	5	248	0.00	30.066 
23:00	29.1	29.1	29.1	65	18.8	1	3	248	0.00	30.070 
23:05	29.0	29.0	29.0	66	19.1	1	4	248	0.00	30.070 
23:10	29.0	29.0	29.0	66	19.1	1	3	248	0.00	30.070 
23:15	29.0	29.0	29.0	66	19.1	1	4	248	0.00	30.075 
23:20	29.0	29.0	29.0	66	19.1	2	5	248	0.00	30.075 
23:25	29.0	29.0	29.0	67	19.4	2	5	248	0.00	30.075 
23:30	28.8	28.8	28.8	67	19.2	2	4	248	0.00	30.084 
23:35	28.8	28.8	28.8	67	19.2	2	5	248	0.00	30.084 
23:40	28.8	28.8	28.8	68	19.6	1	3	248	0.00	30.084 
23:45	28.7	28.7	28.7	68	19.5	1	5	248	0.00	30.091 
23:50	28.7	28.7	28.7	69	19.8	2	4	248	0.00	30.091 
23:55	28.7	28.7	28.7	69	19.8	1	4	248	0.00	30.091 

CoCoRaHS
IN-AL-39
A2 Web Hosting
Creative Commons License
GoDaddy
search engine by freefind advanced

loaded 2018-11-15 04:02:30 • last modified 2010-11-18 10:43:29
Privacy PolicyDisclaimer
• wx.awcolley.com is powered by PmWiki v.2002016 •
• all content (unless otherwise noted) © 2018 A W Colley